Flight Track Log - Related Links

Times and Time Zones

All times are in EST time to prevent confusion due to time zone crossing. See the EJA583 flight status page for this flight to view local times or setup timezone preferences in your user account.


Time Position Orientation Groundspeed Altitude Reporting Facility
EST Latitude Longitude Course Direction KTS MPH feet Rate Location/Type
Tue 10:26:26 AM 31.3197 -87.6822 123° Southeast 322 371 10,400  Level Houston Center
Tue 10:27:28 AM 31.2747 -87.5789 117° Southeast 345 397 10,400 1,016 Level Houston Center
Tue 10:28:30 AM 31.2375 -87.4522 109° East 343 395 12,500 2,177 Climbing Houston Center
Tue 10:29:00 AM 31.1449 -87.2897 120° Southeast  Level FlightAware Approximate
Tue 10:29:32 AM 31.2336 -87.3228 92° East 362 417 14,900  Level Houston Center
Tue 10:30:00 AM 31.0939 -87.1878 120° Southeast  Level FlightAware Approximate
Tue 10:30:34 AM 31.2208 -87.2011 97° East 376 433 17,400  Level Houston Center
Tue 10:31:36 AM 31.1911 -87.0794 106° East 391 450 19,500 1,839 Climbing Houston Center
Tue 10:32:38 AM 31.1461 -86.9550 113° Southeast 407 468 21,200 2,226 Climbing Houston Center
Tue 10:33:40 AM 31.0961 -86.8322 115° Southeast 415 478 24,100 2,646 Climbing Houston Center
Tue 10:34:45 AM 31.0025 -86.7097 132° Southeast 412 474 26,800 2,256 Climbing Jacksonville Center
Tue 10:35:45 AM 30.9306 -86.6050 129° Southeast 417 480 28,800 1,900 Climbing Jacksonville Center
Tue 10:36:45 AM 30.8522 -86.5003 131° Southeast 422 486 30,600 1,750 Climbing Jacksonville Center
Tue 10:37:45 AM 30.7717 -86.3933 131° Southeast 422 486 32,300 1,700 Climbing Jacksonville Center
Tue 10:38:45 AM 30.6931 -86.2842 130° Southeast 427 491 34,000 1,700 Climbing Jacksonville Center
Tue 10:39:45 AM 30.6144 -86.1825 132° Southeast 427 491 35,700 1,700 Climbing Jacksonville Center
Tue 10:40:45 AM 30.5378 -86.0808 131° Southeast 421 484 37,400 1,600 Climbing Jacksonville Center
Tue 10:41:45 AM 30.4631 -85.9747 129° Southeast 421 484 38,900 1,400 Climbing Jacksonville Center
Tue 10:42:45 AM 30.3842 -85.8711 131° Southeast 421 484 40,200 1,050 Climbing Jacksonville Center
Tue 10:43:45 AM 30.3031 -85.7628 131° Southeast 421 484 41,000 400 Climbing Jacksonville Center
Tue 10:44:45 AM 30.2217 -85.6667 134° Southeast 448 516 41,000  Level Jacksonville Center
Tue 10:45:45 AM 30.1344 -85.5511 131° Southeast 463 533 41,000  Level Jacksonville Center
Tue 10:46:45 AM 30.0492 -85.4361 131° Southeast 469 540 41,000  Level Jacksonville Center
Tue 10:47:45 AM 29.9678 -85.3164 128° Southeast 475 547 41,000  Level Jacksonville Center
Tue 10:48:45 AM 29.8822 -85.2042 131° Southeast 469 540 41,000  Level Jacksonville Center
Tue 10:49:45 AM 29.7967 -85.0922 131° Southeast 464 534 41,000  Level Jacksonville Center
Tue 10:50:45 AM 29.7128 -84.9825 131° Southeast 464 534 41,000  Level Jacksonville Center
Tue 10:51:45 AM 29.6289 -84.8733 131° Southeast 464 534 41,000  Level Jacksonville Center
Tue 10:52:45 AM 29.5431 -84.7594 131° Southeast 464 534 41,000  Level Jacksonville Center
Tue 10:53:45 AM 29.4569 -84.6503 132° Southeast 464 534 41,000  Level Jacksonville Center
Tue 10:54:45 AM 29.3728 -84.5417 132° Southeast 464 534 41,000  Level Jacksonville Center
Tue 10:55:45 AM 29.2864 -84.4306 132° Southeast 464 534 41,000  Level Jacksonville Center
Tue 10:56:45 AM 29.2022 -84.3222 132° Southeast 464 534 41,000  Level Jacksonville Center
Tue 10:57:45 AM 29.1178 -84.2117 131° Southeast 464 534 41,000  Level Jacksonville Center
Tue 10:58:45 AM 29.0311 -84.1036 133° Southeast 464 534 41,000 -300 Level Jacksonville Center
Tue 10:59:45 AM 28.9444 -83.9889 131° Southeast 464 534 40,400 -800 Descending Jacksonville Center
Tue 11:00:45 AM 28.8536 -83.8764 133° Southeast 469 540 39,400 -1,000 Descending Jacksonville Center
Tue 11:01:45 AM 28.7667 -83.7642 131° Southeast 469 540 38,400 -1,000 Descending Jacksonville Center
Tue 11:02:45 AM 28.6797 -83.6569 133° Southeast 469 540 37,400 -1,000 Descending Jacksonville Center
Tue 11:03:45 AM 28.5947 -83.5500 132° Southeast 469 540 36,400 -1,000 Descending Jacksonville Center
Tue 11:04:45 AM 28.5097 -83.4431 132° Southeast 464 534 35,400 -483 Descending Jacksonville Center
Tue 11:06:39 AM 28.3469 -83.2314 131° Southeast 448 516 35,000 -138 Descending Miami Center
Tue 11:07:39 AM 28.2675 -83.1375 134° Southeast 448 516 35,000  Level Miami Center
Tue 11:08:39 AM 28.1847 -83.0317 132° Southeast 448 516 35,000  Level Miami Center
Tue 11:09:39 AM 28.0967 -82.9397 137° Southeast 448 516 35,000  Level Miami Center
Tue 11:10:39 AM 28.0044 -82.8503 139° Southeast 442 509 35,000  Level Miami Center
Tue 11:11:39 AM 27.9103 -82.7631 141° Southeast 442 509 35,000 -400 Level Miami Center
Tue 11:12:39 AM 27.8136 -82.6736 141° Southeast 442 509 34,200 -900 Descending Miami Center
Tue 11:13:39 AM 27.7211 -82.5892 141° Southeast 435 501 33,200 -1,000 Descending Miami Center
Tue 11:14:39 AM 27.6244 -82.5022 141° Southeast 441 507 32,200 -1,050 Descending Miami Center
Tue 11:15:39 AM 27.5356 -82.5331 197° South 361 415 31,100 -1,050 Descending Miami Center
Tue 11:16:39 AM 27.5292 -82.6381 266° West 236 272 30,100 -1,400 Descending Miami Center
Tue 11:17:39 AM 27.5208 -82.7406 265° West 280 322 28,300 -3,000 Descending Miami Center
Tue 11:18:39 AM 27.5150 -82.8361 266° West 294 338 24,100 -4,600 Descending Miami Center
Tue 11:19:39 AM 27.5050 -82.9269 263° West 304 350 19,100 -4,600 Descending Miami Center
Tue 11:20:39 AM 27.4989 -83.0178 266° West 298 343 14,900 -3,050 Descending Miami Center
Tue 11:21:39 AM 27.4869 -83.1014 261° West 291 335 13,000 -950 Descending Miami Center
Tue 11:22:39 AM 27.5261 -83.1597 307° West 235 270 13,000 -800 Level Miami Center
Tue 11:23:39 AM 27.5928 -83.1142 31° Northeast 172 198 11,400 -2,300 Descending Miami Center
Tue 11:24:39 AM 27.6336 -83.0414 58° Northeast 185 213 8,400 -3,000 Descending Miami Center
Tue 11:25:39 AM 27.6697 -82.9756 58° Northeast 219 252 5,400 -2,700 Descending Miami Center
Tue 11:26:39 AM 27.7017 -82.9117 61° Northeast 225 259 3,000 -1,309 Descending Miami Center
Tue 11:27:29 AM 27.7333 -82.8667 52° Northeast 212 244 3,000  Level Tampa TRACON
Tue 11:28:29 AM 27.7667 -82.8000 61° Northeast 226 260 3,000 -500 Level Tampa TRACON
Tue 11:29:29 AM 27.8000 -82.7333 61° Northeast 227 261 2,000 -700 Descending Tampa TRACON
Tue 11:30:29 AM 27.8333 -82.6833 53° Northeast 187 215 1,600 -619 Descending Tampa TRACON
Tue 11:31:35 AM 27.8667 -82.6833 360° North 127 146 700 -818 Descending Tampa TRACON
Tue 11:33:00 AM 27.9000 -82.6833 56° Northeast  Level FlightAware Approximate

Login

Don't have an account? Register now (free) for customized features, flight alerts, and more!